createdAt,value
2023-05-19T00:01:01.482Z,38.98
2023-05-19T00:03:31.401Z,38.81
2023-05-19T00:06:01.263Z,38.58
2023-05-19T00:08:32.479Z,38.45
2023-05-19T00:11:01.207Z,39.38
2023-05-19T00:16:00.629Z,39.91
2023-05-19T00:18:29.873Z,39.50
2023-05-19T00:20:57.900Z,40.29
2023-05-19T00:23:25.991Z,39.76
2023-05-19T00:25:54.098Z,39.98
2023-05-19T00:28:22.224Z,39.83
2023-05-19T00:30:50.117Z,39.47
2023-05-19T00:33:19.549Z,39.36
2023-05-19T00:35:47.447Z,40.02
2023-05-19T00:38:15.465Z,39.64
2023-05-19T00:40:44.209Z,40.29
2023-05-19T00:43:13.265Z,40.50
2023-05-19T00:45:41.889Z,39.97
2023-05-19T00:48:10.355Z,40.72
2023-05-19T00:50:40.180Z,39.97
2023-05-19T00:53:08.532Z,39.82
2023-05-19T00:55:40.748Z,39.13
2023-05-19T00:58:11.867Z,39.54
2023-05-19T01:00:40.595Z,39.75
2023-05-19T01:03:11.637Z,40.00
2023-05-19T01:05:44.769Z,40.29
2023-05-19T01:08:13.267Z,40.29
2023-05-19T01:10:42.233Z,40.99
2023-05-19T01:13:10.514Z,39.73
2023-05-19T01:15:48.534Z,39.75
2023-05-19T01:18:26.086Z,40.06
2023-05-19T01:21:36.508Z,39.95
2023-05-19T01:24:24.283Z,40.19
2023-05-19T01:27:19.869Z,40.14
2023-05-19T01:30:11.852Z,39.97
2023-05-19T01:32:42.513Z,40.13
2023-05-19T01:35:13.891Z,41.08
2023-05-19T01:37:43.146Z,40.86
2023-05-19T01:40:11.784Z,40.86
2023-05-19T01:42:41.862Z,40.07
2023-05-19T01:45:13.573Z,41.39
2023-05-19T01:47:44.117Z,41.24
2023-05-19T01:50:12.407Z,41.08
2023-05-19T01:52:40.867Z,40.96
2023-05-19T01:55:10.780Z,40.79
2023-05-19T01:57:48.612Z,40.79
2023-05-19T02:00:31.375Z,41.13
2023-05-19T02:03:12.717Z,41.04
2023-05-19T02:05:53.812Z,40.89
2023-05-19T02:08:28.655Z,41.31
2023-05-19T02:11:04.401Z,41.71
2023-05-19T02:13:37.994Z,41.87
2023-05-19T02:16:09.313Z,41.58
2023-05-19T02:18:38.044Z,41.71
2023-05-19T02:21:13.277Z,42.33
2023-05-19T02:23:42.143Z,42.60
2023-05-19T02:26:10.404Z,42.04
2023-05-19T02:28:38.484Z,41.92
2023-05-19T02:31:10.067Z,42.58
2023-05-19T02:33:38.314Z,42.75
2023-05-19T02:36:07.168Z,43.11
2023-05-19T02:38:36.290Z,41.86
2023-05-19T02:41:04.492Z,42.83
2023-05-19T02:43:32.509Z,42.31
2023-05-19T02:46:00.913Z,42.21
2023-05-19T02:48:30.754Z,43.01
2023-05-19T02:50:59.070Z,42.92
2023-05-19T02:53:26.992Z,43.23
2023-05-19T02:55:55.050Z,44.61
2023-05-19T02:58:23.034Z,43.68
2023-05-19T03:00:51.671Z,43.34
2023-05-19T03:03:20.086Z,42.81
2023-05-19T03:05:49.999Z,42.50
2023-05-19T03:08:18.009Z,42.57
2023-05-19T03:10:47.198Z,41.99
2023-05-19T03:13:17.227Z,42.84
2023-05-19T03:15:46.195Z,43.86
2023-05-19T03:18:15.611Z,43.96
2023-05-19T03:20:44.911Z,44.44
2023-05-19T03:23:14.707Z,43.96
2023-05-19T03:25:43.037Z,43.57
2023-05-19T03:28:11.782Z,43.98
2023-05-19T03:30:41.573Z,44.58
2023-05-19T03:33:14.833Z,44.69
2023-05-19T03:35:44.728Z,44.48
2023-05-19T03:38:15.003Z,44.73
2023-05-19T03:40:50.600Z,44.82
2023-05-19T03:43:18.927Z,44.57
2023-05-19T03:45:53.075Z,44.80
2023-05-19T03:48:39.566Z,45.19
2023-05-19T03:51:28.741Z,46.78
2023-05-19T03:54:07.027Z,45.05
2023-05-19T03:56:37.366Z,43.96
2023-05-19T03:59:10.791Z,44.99
2023-05-19T04:01:47.942Z,45.07
2023-05-19T04:04:16.163Z,45.38
2023-05-19T04:06:46.969Z,45.02
2023-05-19T04:09:17.369Z,45.12
2023-05-19T04:11:48.531Z,44.92
2023-05-19T04:14:16.954Z,44.60
2023-05-19T04:16:45.074Z,44.65
2023-05-19T04:19:13.222Z,44.34
2023-05-19T04:21:41.178Z,44.27
2023-05-19T04:24:09.592Z,44.78
2023-05-19T04:26:42.536Z,44.19
2023-05-19T04:29:10.922Z,45.22
2023-05-19T04:31:41.142Z,45.57
2023-05-19T04:34:10.193Z,46.16
2023-05-19T04:36:39.227Z,45.23
2023-05-19T04:39:10.148Z,46.72
2023-05-19T04:41:44.481Z,45.70
2023-05-19T04:44:13.967Z,46.01
2023-05-19T04:46:45.513Z,44.47
2023-05-19T04:49:14.714Z,45.20
2023-05-19T04:51:43.399Z,44.73
2023-05-19T04:54:12.996Z,44.66
2023-05-19T04:56:43.746Z,45.56
2023-05-19T04:59:12.716Z,44.66
2023-05-19T05:01:43.334Z,44.41
2023-05-19T05:04:15.361Z,44.16
2023-05-19T05:06:48.897Z,43.98
2023-05-19T05:09:17.501Z,45.42
2023-05-19T05:11:48.137Z,45.29
2023-05-19T05:14:17.041Z,45.50
2023-05-19T05:16:46.052Z,46.25
2023-05-19T05:19:19.917Z,44.88
2023-05-19T05:21:54.695Z,44.75
2023-05-19T05:24:23.787Z,44.80
2023-05-19T05:26:59.017Z,45.10
2023-05-19T05:29:27.672Z,44.36
2023-05-19T05:31:56.978Z,44.53
2023-05-19T05:34:26.380Z,44.92
2023-05-19T05:36:54.973Z,45.42
2023-05-19T05:39:23.895Z,43.78
2023-05-19T05:41:52.182Z,44.20
2023-05-19T05:44:22.991Z,43.96
2023-05-19T05:46:52.598Z,44.31
2023-05-19T05:49:21.790Z,44.07
2023-05-19T05:52:05.105Z,44.28
2023-05-19T05:54:40.711Z,43.05
2023-05-19T05:57:10.993Z,43.69
2023-05-19T05:59:41.917Z,43.96
2023-05-19T06:02:10.542Z,44.15
2023-05-19T06:07:51.435Z,43.46
2023-05-19T06:10:25.095Z,43.58
2023-05-19T06:16:15.275Z,44.05
2023-05-19T06:18:47.126Z,43.97
2023-05-19T06:21:18.026Z,41.92
2023-05-19T06:23:47.660Z,42.70
2023-05-19T06:26:16.004Z,42.91
2023-05-19T06:28:47.867Z,41.61
2023-05-19T06:31:24.333Z,43.76
2023-05-19T06:33:55.904Z,41.16
2023-05-19T06:36:24.427Z,40.74
2023-05-19T06:38:57.185Z,39.94
2023-05-19T06:41:26.564Z,40.96
2023-05-19T06:43:55.666Z,40.84
2023-05-19T06:46:24.172Z,41.55
2023-05-19T06:48:53.652Z,41.17
2023-05-19T06:51:25.134Z,40.97
2023-05-19T06:54:00.332Z,39.70
2023-05-19T06:56:29.444Z,40.06
2023-05-19T06:58:57.863Z,41.38
2023-05-19T07:01:32.308Z,40.41
2023-05-19T07:04:01.094Z,40.65
2023-05-19T07:06:29.343Z,40.02
2023-05-19T07:08:58.680Z,40.60
2023-05-19T07:11:27.361Z,39.25
2023-05-19T07:13:55.445Z,39.71
2023-05-19T07:16:28.433Z,39.82
2023-05-19T07:18:57.071Z,39.95
2023-05-19T07:21:25.122Z,40.24
2023-05-19T07:23:53.028Z,39.75
2023-05-19T07:26:22.709Z,38.99
2023-05-19T07:28:51.927Z,38.06
2023-05-19T07:31:23.331Z,38.10
2023-05-19T07:33:53.741Z,37.78
2023-05-19T07:36:22.690Z,37.32
2023-05-19T07:38:51.075Z,39.47
2023-05-19T07:41:19.142Z,38.79
2023-05-19T07:43:48.637Z,38.98
2023-05-19T07:46:16.796Z,38.77
2023-05-19T07:48:44.981Z,38.55
2023-05-19T07:51:13.615Z,37.97
2023-05-19T07:53:41.448Z,36.81
2023-05-19T07:56:09.435Z,37.50
2023-05-19T07:58:37.785Z,37.28
2023-05-19T08:01:07.690Z,37.53
2023-05-19T08:03:35.904Z,37.41
2023-05-19T08:06:04.490Z,36.14
2023-05-19T08:08:33.459Z,35.94
2023-05-19T08:11:04.505Z,35.73
2023-05-19T08:13:32.654Z,35.22
2023-05-19T08:16:00.897Z,34.52
2023-05-19T08:18:30.510Z,36.06
2023-05-19T08:20:58.543Z,35.70
2023-05-19T08:23:26.717Z,34.85
2023-05-19T08:25:54.784Z,34.40
2023-05-19T08:28:22.974Z,34.07
2023-05-19T08:30:52.273Z,34.70
2023-05-19T08:33:21.440Z,33.84
2023-05-19T08:35:51.486Z,33.70
2023-05-19T08:38:19.609Z,33.17
2023-05-19T08:40:48.493Z,32.89
2023-05-19T08:43:16.471Z,32.64
2023-05-19T08:45:46.669Z,32.31
2023-05-19T08:48:15.899Z,33.68
2023-05-19T08:50:51.545Z,33.75
2023-05-19T08:56:10.089Z,33.04
2023-05-19T08:58:41.321Z,32.07
2023-05-19T09:01:09.701Z,31.08
2023-05-19T09:03:39.267Z,33.12
2023-05-19T09:06:08.853Z,32.87
2023-05-19T09:08:38.301Z,33.32
2023-05-19T09:11:07.355Z,33.24
2023-05-19T09:13:36.166Z,32.63
2023-05-19T09:16:05.108Z,32.63
2023-05-19T09:18:33.813Z,33.45
2023-05-19T09:21:03.239Z,33.35
2023-05-19T09:23:34.095Z,32.63
2023-05-19T09:26:07.521Z,30.79
2023-05-19T09:28:37.752Z,31.44
2023-05-19T09:31:07.338Z,33.64
2023-05-19T09:33:36.406Z,32.82
2023-05-19T09:36:06.066Z,31.25
2023-05-19T09:38:34.328Z,30.60
2023-05-19T09:41:02.808Z,31.32
2023-05-19T09:43:34.251Z,31.56
2023-05-19T09:46:05.578Z,30.63
2023-05-19T09:48:34.554Z,29.71
2023-05-19T09:51:02.495Z,30.53
2023-05-19T09:53:32.444Z,31.40
2023-05-19T09:56:02.275Z,31.05
2023-05-19T09:58:36.484Z,31.03
2023-05-19T10:01:05.618Z,31.07
2023-05-19T10:03:35.131Z,29.85
2023-05-19T10:06:05.011Z,30.05
2023-05-19T10:08:34.708Z,28.25
2023-05-19T10:11:03.474Z,27.29
2023-05-19T10:13:35.075Z,27.18
2023-05-19T10:16:03.331Z,27.90
2023-05-19T10:18:33.950Z,28.40
2023-05-19T10:21:03.660Z,28.16
2023-05-19T10:23:31.936Z,28.49
2023-05-19T10:26:02.404Z,27.78
2023-05-19T10:28:36.255Z,28.46
2023-05-19T10:31:07.901Z,28.83
2023-05-19T10:33:48.396Z,29.53
2023-05-19T10:36:35.443Z,28.44
2023-05-19T10:39:08.109Z,26.95
2023-05-19T10:41:43.986Z,26.92
2023-05-19T10:44:23.947Z,26.03
2023-05-19T10:46:54.207Z,25.64
2023-05-19T10:49:24.121Z,25.40
2023-05-19T10:51:53.626Z,25.99
2023-05-19T10:54:41.253Z,25.56
2023-05-19T10:57:09.942Z,26.72
2023-05-19T10:59:39.414Z,26.52
2023-05-19T11:02:09.311Z,25.07
2023-05-19T11:04:49.515Z,24.10
2023-05-19T11:07:20.945Z,24.61
2023-05-19T11:09:52.146Z,23.80
2023-05-19T11:12:25.106Z,22.78
2023-05-19T11:14:56.140Z,22.86
2023-05-19T11:17:27.442Z,22.76
2023-05-19T11:19:56.838Z,25.01
2023-05-19T11:22:26.692Z,23.59
2023-05-19T11:24:56.583Z,23.53
2023-05-19T11:27:27.698Z,23.38
2023-05-19T11:29:59.279Z,24.03
2023-05-19T11:32:28.537Z,24.42
2023-05-19T11:34:57.101Z,24.76
2023-05-19T11:37:25.450Z,24.59
2023-05-19T11:39:54.344Z,24.42
2023-05-19T11:42:22.951Z,23.61
2023-05-19T11:44:51.315Z,23.84
2023-05-19T11:47:21.738Z,23.52
2023-05-19T11:49:50.123Z,22.79
2023-05-19T11:52:19.303Z,21.00
2023-05-19T11:54:49.580Z,21.75
2023-05-19T11:57:17.663Z,20.54
2023-05-19T11:59:47.861Z,22.43
2023-05-19T12:02:19.157Z,21.39
2023-05-19T12:04:49.630Z,22.18
2023-05-19T12:07:22.906Z,22.58
2023-05-19T12:09:52.014Z,23.04
2023-05-19T12:12:21.927Z,22.87
2023-05-19T12:14:51.784Z,21.62
2023-05-19T12:17:21.121Z,21.84
2023-05-19T12:19:51.828Z,21.38
2023-05-19T12:22:20.339Z,22.46
2023-05-19T12:24:49.080Z,22.45
2023-05-19T12:27:20.108Z,22.72
2023-05-19T12:29:52.728Z,23.40
2023-05-19T12:32:24.724Z,22.65
2023-05-19T12:34:58.687Z,22.73
2023-05-19T12:37:30.248Z,22.74
2023-05-19T12:39:58.477Z,22.05
2023-05-19T12:42:31.226Z,22.59
2023-05-19T12:45:02.965Z,22.06
2023-05-19T12:47:35.224Z,21.40
2023-05-19T12:50:06.229Z,21.98
2023-05-19T12:52:35.699Z,22.24
2023-05-19T12:55:06.935Z,22.39
2023-05-19T12:57:36.714Z,22.36
2023-05-19T13:00:07.812Z,22.98
2023-05-19T13:02:36.856Z,22.64
2023-05-19T13:05:06.688Z,24.19
2023-05-19T13:07:35.713Z,24.41
2023-05-19T13:10:04.162Z,23.61
2023-05-19T13:12:32.130Z,22.99
2023-05-19T13:15:00.693Z,22.82
2023-05-19T13:17:28.656Z,22.63
2023-05-19T13:19:56.895Z,23.11
2023-05-19T13:22:39.296Z,23.62
2023-05-19T13:25:12.543Z,24.63
2023-05-19T13:31:02.711Z,23.44
2023-05-19T13:33:31.828Z,23.45
2023-05-19T13:36:16.598Z,23.91
2023-05-19T13:38:46.969Z,22.76
2023-05-19T13:41:16.033Z,23.18
2023-05-19T13:43:44.098Z,22.97
2023-05-19T13:46:12.365Z,22.95
2023-05-19T13:48:40.371Z,21.94
2023-05-19T13:51:08.402Z,22.06
2023-05-19T13:53:36.429Z,21.78
2023-05-19T13:56:06.506Z,21.80
2023-05-19T13:58:34.697Z,23.18
2023-05-19T14:01:02.839Z,23.68
2023-05-19T14:03:30.991Z,23.86
2023-05-19T14:05:59.012Z,23.18
2023-05-19T14:08:27.124Z,22.88
2023-05-19T14:10:56.218Z,22.96
2023-05-19T14:13:32.981Z,22.85
2023-05-19T14:16:03.508Z,22.21
2023-05-19T14:18:32.450Z,21.61
2023-05-19T14:21:00.316Z,21.87
2023-05-19T14:23:30.188Z,21.47
2023-05-19T14:25:58.195Z,20.62
2023-05-19T14:28:27.568Z,20.59
2023-05-19T14:30:55.598Z,20.85
2023-05-19T14:33:23.456Z,21.55
2023-05-19T14:35:51.426Z,22.20
2023-05-19T14:38:19.574Z,22.23
2023-05-19T14:40:48.514Z,21.86
2023-05-19T14:43:16.799Z,21.54
2023-05-19T14:45:46.405Z,21.67
2023-05-19T14:48:14.515Z,18.89
2023-05-19T14:50:42.916Z,17.20
2023-05-19T14:53:11.018Z,18.02
2023-05-19T14:55:38.962Z,17.86
2023-05-19T14:58:15.995Z,17.09
2023-05-19T15:00:58.376Z,16.01
2023-05-19T15:03:26.936Z,16.35
2023-05-19T15:05:55.075Z,15.93
2023-05-19T15:08:23.460Z,15.22
2023-05-19T15:10:51.905Z,14.58
2023-05-19T15:13:21.441Z,15.16
2023-05-19T15:15:49.498Z,14.82
2023-05-19T15:18:18.940Z,14.62
2023-05-19T15:20:47.489Z,16.35
2023-05-19T15:23:15.458Z,14.13
2023-05-19T15:25:45.459Z,14.90
2023-05-19T15:28:13.712Z,17.11
2023-05-19T15:30:43.037Z,18.76
2023-05-19T15:33:11.725Z,18.64
2023-05-19T15:35:41.082Z,19.12
2023-05-19T15:38:09.111Z,19.26
2023-05-19T15:40:37.241Z,20.51
2023-05-19T15:43:05.490Z,20.91
2023-05-19T15:45:33.478Z,19.35
2023-05-19T15:48:01.724Z,18.88
2023-05-19T15:50:30.368Z,20.67
2023-05-19T15:52:59.805Z,20.08
2023-05-19T15:55:27.842Z,20.23
2023-05-19T15:57:55.849Z,20.92
2023-05-19T16:00:23.853Z,21.42
2023-05-19T16:02:51.876Z,21.99
2023-05-19T16:05:20.209Z,21.50
2023-05-19T16:07:48.098Z,22.66
2023-05-19T16:10:17.522Z,22.36
2023-05-19T16:12:45.812Z,20.37
2023-05-19T16:15:13.827Z,19.74
2023-05-19T16:17:41.788Z,20.93
2023-05-19T16:20:11.119Z,20.81
2023-05-19T16:22:39.062Z,20.82
2023-05-19T16:25:08.568Z,21.15
2023-05-19T16:27:38.113Z,23.07
2023-05-19T16:30:07.429Z,23.01
2023-05-19T16:32:35.434Z,22.52
2023-05-19T16:35:03.375Z,23.09
2023-05-19T16:37:31.543Z,23.15
2023-05-19T16:39:59.808Z,24.16
2023-05-19T16:42:28.307Z,23.88
2023-05-19T16:44:57.674Z,24.35
2023-05-19T16:47:25.528Z,24.73
2023-05-19T16:49:53.450Z,24.52
2023-05-19T16:52:21.292Z,24.68
2023-05-19T16:54:49.260Z,25.47
2023-05-19T16:57:17.159Z,24.90
2023-05-19T16:59:45.196Z,24.69
2023-05-19T17:02:14.600Z,24.80
2023-05-19T17:04:42.489Z,24.92
2023-05-19T17:07:15.617Z,24.46
2023-05-19T17:09:43.966Z,24.34
2023-05-19T17:12:12.159Z,24.83
2023-05-19T17:14:42.370Z,23.91
2023-05-19T17:17:10.603Z,23.86
2023-05-19T17:19:40.127Z,24.39
2023-05-19T17:22:07.942Z,25.53
2023-05-19T17:24:35.889Z,25.20
2023-05-19T17:27:04.076Z,25.06
2023-05-19T17:29:32.055Z,25.37
2023-05-19T17:32:00.116Z,25.18
2023-05-19T17:34:28.204Z,24.70
2023-05-19T17:36:57.495Z,24.48
2023-05-19T17:39:25.935Z,24.15
2023-05-19T17:41:53.910Z,24.38
2023-05-19T17:44:21.866Z,24.92
2023-05-19T17:46:49.930Z,25.40
2023-05-19T17:49:17.852Z,25.84
2023-05-19T17:51:46.265Z,25.03
2023-05-19T17:54:16.218Z,24.39
2023-05-19T17:56:45.548Z,24.24
2023-05-19T17:59:13.947Z,24.10
2023-05-19T18:01:42.366Z,24.80
2023-05-19T18:04:11.785Z,25.42
2023-05-19T18:06:44.832Z,24.99
2023-05-19T18:09:18.719Z,24.49
2023-05-19T18:11:46.891Z,24.84
2023-05-19T18:14:14.939Z,24.58
2023-05-19T18:16:43.069Z,24.47
2023-05-19T18:19:10.922Z,25.40
2023-05-19T18:21:39.052Z,25.65
2023-05-19T18:24:08.255Z,26.01
2023-05-19T18:26:41.725Z,26.68
2023-05-19T18:29:10.899Z,25.50
2023-05-19T18:31:39.148Z,25.86
2023-05-19T18:34:07.632Z,25.88
2023-05-19T18:36:36.301Z,26.64
2023-05-19T18:39:04.726Z,25.74
2023-05-19T18:41:32.906Z,26.07
2023-05-19T18:44:02.146Z,26.70
2023-05-19T18:46:30.264Z,26.38
2023-05-19T18:48:58.469Z,26.59
2023-05-19T18:51:26.860Z,25.99
2023-05-19T18:53:55.020Z,26.10
2023-05-19T18:56:26.406Z,26.08
2023-05-19T18:58:56.208Z,25.48
2023-05-19T19:01:26.057Z,26.33
2023-05-19T19:03:54.058Z,26.39
2023-05-19T19:06:23.205Z,26.75
2023-05-19T19:08:51.317Z,27.38
2023-05-19T19:11:19.336Z,27.05
2023-05-19T19:13:51.000Z,27.77
2023-05-19T19:16:18.937Z,27.64
2023-05-19T19:18:48.496Z,27.54
2023-05-19T19:21:16.450Z,27.48
2023-05-19T19:23:44.721Z,28.06
2023-05-19T19:26:13.093Z,28.97
2023-05-19T19:28:41.147Z,28.90
2023-05-19T19:31:09.325Z,28.76
2023-05-19T19:33:37.290Z,28.54
2023-05-19T19:36:07.018Z,29.04
2023-05-19T19:38:34.974Z,28.64
2023-05-19T19:41:03.017Z,28.70
2023-05-19T19:43:31.427Z,29.27
2023-05-19T19:46:01.286Z,29.46
2023-05-19T19:48:30.062Z,29.33
2023-05-19T19:50:58.717Z,28.46
2023-05-19T19:53:28.210Z,28.94
2023-05-19T19:55:59.930Z,29.25
2023-05-19T19:58:29.185Z,29.66
2023-05-19T20:00:58.440Z,29.30
2023-05-19T20:03:27.809Z,30.34
2023-05-19T20:05:57.555Z,30.02
2023-05-19T20:08:27.205Z,29.97
2023-05-19T20:10:55.498Z,29.57
2023-05-19T20:13:23.377Z,29.33
2023-05-19T20:15:51.326Z,29.82
2023-05-19T20:18:19.269Z,30.66
2023-05-19T20:20:47.180Z,30.49
2023-05-19T20:23:16.209Z,31.50
2023-05-19T20:26:02.453Z,31.30
2023-05-19T20:28:35.064Z,31.39
2023-05-19T20:31:03.069Z,31.28
2023-05-19T20:33:31.750Z,31.57
2023-05-19T20:36:02.311Z,31.86
2023-05-19T20:38:30.204Z,32.13
2023-05-19T20:40:59.389Z,31.66
2023-05-19T20:43:27.607Z,32.19
2023-05-19T20:45:55.532Z,32.08
2023-05-19T20:48:23.577Z,32.11
2023-05-19T20:50:51.921Z,32.25
2023-05-19T20:53:21.469Z,32.37
2023-05-19T20:55:49.628Z,32.21
2023-05-19T20:58:19.107Z,32.45
2023-05-19T21:00:48.611Z,32.09
2023-05-19T21:03:16.709Z,32.87
2023-05-19T21:05:44.563Z,32.66
2023-05-19T21:08:12.915Z,32.59
2023-05-19T21:10:40.971Z,32.95
2023-05-19T21:13:08.954Z,32.72
2023-05-19T21:15:38.313Z,32.93
2023-05-19T21:18:06.250Z,32.43
2023-05-19T21:20:34.731Z,32.86
2023-05-19T21:23:02.789Z,32.60
2023-05-19T21:25:31.026Z,32.99
2023-05-19T21:27:59.356Z,33.20
2023-05-19T21:30:27.271Z,33.40
2023-05-19T21:32:56.947Z,33.75
2023-05-19T21:35:25.306Z,33.72
2023-05-19T21:37:53.493Z,33.23
2023-05-19T21:40:21.444Z,33.34
2023-05-19T21:42:49.333Z,34.24
2023-05-19T21:45:17.319Z,34.49
2023-05-19T21:47:46.333Z,35.09
2023-05-19T21:50:17.446Z,35.68
2023-05-19T21:52:52.044Z,36.60
2023-05-19T21:55:22.102Z,36.46
2023-05-19T21:57:51.715Z,35.32
2023-05-19T22:00:21.528Z,35.50
2023-05-19T22:02:50.588Z,35.39
2023-05-19T22:05:21.351Z,35.32
2023-05-19T22:07:49.646Z,35.06
2023-05-19T22:10:17.978Z,34.83
2023-05-19T22:12:46.134Z,34.55
2023-05-19T22:15:15.798Z,35.01
2023-05-19T22:17:44.189Z,35.23
2023-05-19T22:20:13.105Z,35.40
2023-05-19T22:22:42.482Z,35.19
2023-05-19T22:25:10.991Z,35.27
2023-05-19T22:27:39.163Z,36.56
2023-05-19T22:30:09.203Z,34.81
2023-05-19T22:32:40.200Z,35.88
2023-05-19T22:35:09.026Z,36.60
2023-05-19T22:37:37.145Z,36.21
2023-05-19T22:40:07.951Z,35.32
2023-05-19T22:42:35.860Z,35.12
2023-05-19T22:45:04.232Z,36.44
2023-05-19T22:47:32.244Z,35.43
2023-05-19T22:50:00.240Z,36.46
2023-05-19T22:52:28.237Z,36.13
2023-05-19T22:54:56.365Z,36.46
2023-05-19T22:57:25.664Z,36.06
2023-05-19T22:59:53.656Z,37.83
2023-05-19T23:02:21.609Z,39.33
2023-05-19T23:04:49.640Z,39.91
2023-05-19T23:07:17.738Z,40.15
2023-05-19T23:09:45.768Z,39.95
2023-05-19T23:12:13.808Z,38.68
2023-05-19T23:14:43.546Z,38.17
2023-05-19T23:17:11.644Z,38.27
2023-05-19T23:19:40.272Z,38.80
2023-05-19T23:22:08.889Z,38.25
2023-05-19T23:24:37.806Z,37.99
2023-05-19T23:27:06.258Z,38.59
2023-05-19T23:29:34.186Z,38.80
2023-05-19T23:32:03.512Z,38.38
2023-05-19T23:34:31.488Z,37.90
2023-05-19T23:36:59.603Z,37.98
2023-05-19T23:39:27.623Z,38.55
2023-05-19T23:41:56.389Z,38.41
2023-05-19T23:44:24.605Z,38.44
2023-05-19T23:46:52.804Z,38.36
2023-05-19T23:49:22.237Z,38.69
2023-05-19T23:51:50.074Z,39.08
2023-05-19T23:54:18.021Z,39.05
2023-05-19T23:56:46.127Z,38.97
2023-05-19T23:59:14.155Z,38.27
